sensor_id;sensor_type;location;lat;lon;timestamp;pressure;altitude;pressure_sealevel;temperature;humidity
41830;BME280;38614;43.472;23.936;2023-05-31T00:01:53;100249.34;;;15.07;100.00
41830;BME280;38614;43.472;23.936;2023-05-31T00:04:42;100251.00;;;15.16;100.00
41830;BME280;38614;43.472;23.936;2023-05-31T00:07:29;100253.38;;;15.14;100.00
41830;BME280;38614;43.472;23.936;2023-05-31T00:10:22;100248.59;;;15.10;100.00
41830;BME280;38614;43.472;23.936;2023-05-31T00:13:18;100256.50;;;15.05;100.00
41830;BME280;38614;43.472;23.936;2023-05-31T00:16:12;100244.09;;;14.95;100.00
41830;BME280;38614;43.472;23.936;2023-05-31T00:19:20;100220.84;;;14.70;100.00
41830;BME280;38614;43.472;23.936;2023-05-31T00:22:08;100236.41;;;14.78;100.00
41830;BME280;38614;43.472;23.936;2023-05-31T00:24:57;100236.06;;;14.83;100.00
41830;BME280;38614;43.472;23.936;2023-05-31T00:27:45;100239.28;;;14.85;100.00
41830;BME280;38614;43.472;23.936;2023-05-31T00:30:32;100246.03;;;14.84;100.00
41830;BME280;38614;43.472;23.936;2023-05-31T00:33:21;100224.78;;;14.62;100.00
41830;BME280;38614;43.472;23.936;2023-05-31T00:36:12;100238.44;;;14.81;100.00
41830;BME280;38614;43.472;23.936;2023-05-31T00:38:59;100254.38;;;14.84;100.00
41830;BME280;38614;43.472;23.936;2023-05-31T00:41:47;100255.91;;;14.78;100.00
41830;BME280;38614;43.472;23.936;2023-05-31T00:44:35;100255.91;;;14.78;100.00
41830;BME280;38614;43.472;23.936;2023-05-31T00:47:24;100247.13;;;14.76;100.00
41830;BME280;38614;43.472;23.936;2023-05-31T00:50:13;100254.72;;;14.79;100.00
41830;BME280;38614;43.472;23.936;2023-05-31T00:53:02;100248.75;;;14.77;100.00
41830;BME280;38614;43.472;23.936;2023-05-31T00:55:51;100245.53;;;14.71;100.00
41830;BME280;38614;43.472;23.936;2023-05-31T00:58:43;100252.63;;;14.65;100.00
41830;BME280;38614;43.472;23.936;2023-05-31T01:01:35;100243.88;;;14.63;100.00
41830;BME280;38614;43.472;23.936;2023-05-31T01:04:22;100227.09;;;14.52;100.00
41830;BME280;38614;43.472;23.936;2023-05-31T01:07:10;100247.75;;;14.55;100.00
41830;BME280;38614;43.472;23.936;2023-05-31T01:09:59;100253.75;;;14.61;100.00
41830;BME280;38614;43.472;23.936;2023-05-31T01:13:07;100241.78;;;14.53;100.00
41830;BME280;38614;43.472;23.936;2023-05-31T01:16:13;100250.84;;;14.46;100.00
41830;BME280;38614;43.472;23.936;2023-05-31T01:19:06;100264.13;;;14.64;100.00
41830;BME280;38614;43.472;23.936;2023-05-31T01:22:12;100264.53;;;14.62;100.00
41830;BME280;38614;43.472;23.936;2023-05-31T01:25:07;100244.84;;;14.44;100.00
41830;BME280;38614;43.472;23.936;2023-05-31T01:27:59;100255.69;;;14.53;100.00
41830;BME280;38614;43.472;23.936;2023-05-31T01:30:49;100261.63;;;14.51;100.00
41830;BME280;38614;43.472;23.936;2023-05-31T01:33:38;100264.78;;;14.50;100.00
41830;BME280;38614;43.472;23.936;2023-05-31T01:36:26;100245.56;;;14.34;100.00
41830;BME280;38614;43.472;23.936;2023-05-31T01:39:14;100239.91;;;14.27;100.00
41830;BME280;38614;43.472;23.936;2023-05-31T01:42:03;100251.81;;;14.24;100.00
41830;BME280;38614;43.472;23.936;2023-05-31T01:44:53;100272.97;;;14.36;100.00
41830;BME280;38614;43.472;23.936;2023-05-31T01:47:42;100268.72;;;14.45;100.00
41830;BME280;38614;43.472;23.936;2023-05-31T01:50:33;100263.88;;;14.42;100.00
41830;BME280;38614;43.472;23.936;2023-05-31T01:53:21;100273.78;;;14.40;100.00
41830;BME280;38614;43.472;23.936;2023-05-31T01:56:10;100269.38;;;14.35;100.00
41830;BME280;38614;43.472;23.936;2023-05-31T01:58:58;100225.63;;;13.91;100.00
41830;BME280;38614;43.472;23.936;2023-05-31T02:01:48;100221.34;;;13.97;100.00
41830;BME280;38614;43.472;23.936;2023-05-31T02:04:36;100272.84;;;14.25;100.00
41830;BME280;38614;43.472;23.936;2023-05-31T02:07:24;100269.13;;;14.14;100.00
41830;BME280;38614;43.472;23.936;2023-05-31T02:10:19;100264.72;;;14.06;100.00
41830;BME280;38614;43.472;23.936;2023-05-31T02:13:07;100292.91;;;14.08;100.00
41830;BME280;38614;43.472;23.936;2023-05-31T02:15:55;100297.59;;;14.04;100.00
41830;BME280;38614;43.472;23.936;2023-05-31T02:18:43;100288.47;;;14.03;100.00
41830;BME280;38614;43.472;23.936;2023-05-31T02:21:35;100293.63;;;14.01;100.00
41830;BME280;38614;43.472;23.936;2023-05-31T02:24:23;100300.31;;;13.96;100.00
41830;BME280;38614;43.472;23.936;2023-05-31T02:27:12;100279.50;;;13.83;100.00
41830;BME280;38614;43.472;23.936;2023-05-31T02:30:04;100278.09;;;13.96;100.00
41830;BME280;38614;43.472;23.936;2023-05-31T02:32:53;100285.94;;;13.91;100.00
41830;BME280;38614;43.472;23.936;2023-05-31T02:35:41;100278.00;;;13.89;100.00
41830;BME280;38614;43.472;23.936;2023-05-31T02:38:28;100295.91;;;13.95;100.00
41830;BME280;38614;43.472;23.936;2023-05-31T02:41:16;100286.75;;;13.91;100.00
41830;BME280;38614;43.472;23.936;2023-05-31T02:44:04;100277.13;;;13.85;100.00
41830;BME280;38614;43.472;23.936;2023-05-31T02:46:52;100290.03;;;14.01;100.00
41830;BME280;38614;43.472;23.936;2023-05-31T02:49:40;100288.44;;;14.00;100.00
41830;BME280;38614;43.472;23.936;2023-05-31T02:52:28;100289.75;;;14.09;100.00
41830;BME280;38614;43.472;23.936;2023-05-31T02:55:36;100294.03;;;14.03;100.00
41830;BME280;38614;43.472;23.936;2023-05-31T02:58:39;100291.22;;;14.00;100.00
41830;BME280;38614;43.472;23.936;2023-05-31T03:01:40;100292.94;;;14.11;100.00
41830;BME280;38614;43.472;23.936;2023-05-31T03:04:38;100290.44;;;14.03;100.00
41830;BME280;38614;43.472;23.936;2023-05-31T03:07:26;100301.63;;;14.06;100.00
41830;BME280;38614;43.472;23.936;2023-05-31T03:10:14;100306.00;;;14.07;100.00
41830;BME280;38614;43.472;23.936;2023-05-31T03:13:03;100317.94;;;14.11;100.00
41830;BME280;38614;43.472;23.936;2023-05-31T03:15:51;100295.69;;;14.08;100.00
41830;BME280;38614;43.472;23.936;2023-05-31T03:18:39;100311.22;;;14.12;100.00
41830;BME280;38614;43.472;23.936;2023-05-31T03:21:36;100297.69;;;14.11;100.00
41830;BME280;38614;43.472;23.936;2023-05-31T03:24:24;100296.69;;;14.26;100.00
41830;BME280;38614;43.472;23.936;2023-05-31T03:27:12;100304.25;;;14.29;100.00
41830;BME280;38614;43.472;23.936;2023-05-31T03:30:01;100316.66;;;14.35;100.00
41830;BME280;38614;43.472;23.936;2023-05-31T03:32:50;100318.53;;;14.27;100.00
41830;BME280;38614;43.472;23.936;2023-05-31T03:35:38;100333.75;;;14.41;100.00
41830;BME280;38614;43.472;23.936;2023-05-31T03:38:28;100346.84;;;14.37;100.00
41830;BME280;38614;43.472;23.936;2023-05-31T03:41:16;100337.72;;;14.40;100.00
41830;BME280;38614;43.472;23.936;2023-05-31T03:44:07;100326.91;;;14.31;100.00
41830;BME280;38614;43.472;23.936;2023-05-31T03:46:57;100321.75;;;14.30;100.00
41830;BME280;38614;43.472;23.936;2023-05-31T03:49:47;100338.53;;;14.40;100.00
41830;BME280;38614;43.472;23.936;2023-05-31T03:52:37;100338.66;;;14.47;100.00
41830;BME280;38614;43.472;23.936;2023-05-31T03:55:26;100340.56;;;14.43;100.00
41830;BME280;38614;43.472;23.936;2023-05-31T03:58:14;100323.38;;;14.34;100.00
41830;BME280;38614;43.472;23.936;2023-05-31T04:01:02;100339.38;;;14.44;100.00
41830;BME280;38614;43.472;23.936;2023-05-31T04:03:50;100323.75;;;14.33;100.00
41830;BME280;38614;43.472;23.936;2023-05-31T04:06:38;100349.56;;;14.67;100.00
41830;BME280;38614;43.472;23.936;2023-05-31T04:09:26;100345.66;;;14.71;100.00
41830;BME280;38614;43.472;23.936;2023-05-31T04:12:17;100326.13;;;14.68;100.00
41830;BME280;38614;43.472;23.936;2023-05-31T04:15:05;100335.75;;;14.74;100.00
41830;BME280;38614;43.472;23.936;2023-05-31T04:17:54;100344.97;;;14.81;100.00
41830;BME280;38614;43.472;23.936;2023-05-31T04:20:43;100336.25;;;14.87;100.00
41830;BME280;38614;43.472;23.936;2023-05-31T04:23:30;100355.13;;;15.07;100.00
41830;BME280;38614;43.472;23.936;2023-05-31T04:26:19;100325.28;;;15.04;100.00
41830;BME280;38614;43.472;23.936;2023-05-31T04:29:09;100328.91;;;15.08;100.00
41830;BME280;38614;43.472;23.936;2023-05-31T04:31:59;100344.94;;;15.26;100.00
41830;BME280;38614;43.472;23.936;2023-05-31T04:34:47;100351.72;;;15.28;100.00
41830;BME280;38614;43.472;23.936;2023-05-31T04:37:36;100353.00;;;15.42;100.00
41830;BME280;38614;43.472;23.936;2023-05-31T04:40:26;100348.28;;;15.49;100.00
41830;BME280;38614;43.472;23.936;2023-05-31T04:43:15;100343.56;;;15.57;100.00
41830;BME280;38614;43.472;23.936;2023-05-31T04:46:03;100367.22;;;15.81;100.00
41830;BME280;38614;43.472;23.936;2023-05-31T04:48:51;100361.00;;;16.05;100.00
41830;BME280;38614;43.472;23.936;2023-05-31T04:51:39;100370.16;;;16.09;100.00
41830;BME280;38614;43.472;23.936;2023-05-31T04:54:27;100368.63;;;16.22;100.00
41830;BME280;38614;43.472;23.936;2023-05-31T04:57:15;100371.84;;;16.28;100.00
41830;BME280;38614;43.472;23.936;2023-05-31T05:00:04;100339.16;;;16.21;100.00
41830;BME280;38614;43.472;23.936;2023-05-31T05:03:32;100376.72;;;16.63;100.00
41830;BME280;38614;43.472;23.936;2023-05-31T05:06:23;100360.06;;;16.70;100.00
41830;BME280;38614;43.472;23.936;2023-05-31T05:09:12;100366.88;;;16.87;100.00
41830;BME280;38614;43.472;23.936;2023-05-31T05:12:01;100372.84;;;17.00;100.00
41830;BME280;38614;43.472;23.936;2023-05-31T05:14:50;100362.09;;;17.30;100.00
41830;BME280;38614;43.472;23.936;2023-05-31T05:17:38;100381.22;;;17.57;100.00
41830;BME280;38614;43.472;23.936;2023-05-31T05:20:27;100385.22;;;17.66;100.00
41830;BME280;38614;43.472;23.936;2023-05-31T05:23:15;100368.03;;;17.68;100.00
41830;BME280;38614;43.472;23.936;2023-05-31T05:26:05;100340.53;;;17.70;100.00
41830;BME280;38614;43.472;23.936;2023-05-31T05:28:55;100389.84;;;18.37;100.00
41830;BME280;38614;43.472;23.936;2023-05-31T05:31:43;100391.72;;;18.62;100.00
41830;BME280;38614;43.472;23.936;2023-05-31T05:34:31;100372.53;;;18.60;100.00
41830;BME280;38614;43.472;23.936;2023-05-31T05:37:19;100385.16;;;18.93;100.00
41830;BME280;38614;43.472;23.936;2023-05-31T05:40:07;100388.13;;;19.24;100.00
41830;BME280;38614;43.472;23.936;2023-05-31T05:42:56;100363.81;;;19.14;100.00
41830;BME280;38614;43.472;23.936;2023-05-31T05:45:46;100347.84;;;19.11;100.00
41830;BME280;38614;43.472;23.936;2023-05-31T05:48:37;100371.00;;;19.18;100.00
41830;BME280;38614;43.472;23.936;2023-05-31T05:51:25;100349.69;;;19.28;100.00
41830;BME280;38614;43.472;23.936;2023-05-31T05:54:18;100332.69;;;19.49;100.00
41830;BME280;38614;43.472;23.936;2023-05-31T05:57:06;100373.25;;;19.82;100.00
41830;BME280;38614;43.472;23.936;2023-05-31T05:59:58;100335.06;;;19.51;100.00
41830;BME280;38614;43.472;23.936;2023-05-31T06:02:49;100374.41;;;20.19;100.00
41830;BME280;38614;43.472;23.936;2023-05-31T06:05:37;100325.88;;;20.22;100.00
41830;BME280;38614;43.472;23.936;2023-05-31T06:08:26;100352.34;;;20.21;100.00
41830;BME280;38614;43.472;23.936;2023-05-31T06:11:16;100384.63;;;20.97;100.00
41830;BME280;38614;43.472;23.936;2023-05-31T06:14:06;100372.94;;;20.99;100.00
41830;BME280;38614;43.472;23.936;2023-05-31T06:16:59;100352.31;;;20.86;100.00
41830;BME280;38614;43.472;23.936;2023-05-31T06:19:47;100320.63;;;20.85;100.00
41830;BME280;38614;43.472;23.936;2023-05-31T06:22:37;100394.28;;;21.47;100.00
41830;BME280;38614;43.472;23.936;2023-05-31T06:25:27;100347.44;;;21.83;100.00
41830;BME280;38614;43.472;23.936;2023-05-31T06:28:18;100325.50;;;21.95;100.00
41830;BME280;38614;43.472;23.936;2023-05-31T06:31:09;100330.91;;;22.05;100.00
41830;BME280;38614;43.472;23.936;2023-05-31T06:33:57;100334.13;;;22.07;100.00
41830;BME280;38614;43.472;23.936;2023-05-31T06:36:50;100307.50;;;22.12;100.00
41830;BME280;38614;43.472;23.936;2023-05-31T06:39:44;100377.56;;;22.82;100.00
41830;BME280;38614;43.472;23.936;2023-05-31T06:42:33;100335.97;;;22.54;100.00
41830;BME280;38614;43.472;23.936;2023-05-31T06:45:49;100309.03;;;22.53;100.00
41830;BME280;38614;43.472;23.936;2023-05-31T06:48:37;100315.41;;;22.73;100.00
41830;BME280;38614;43.472;23.936;2023-05-31T06:51:48;100346.34;;;22.93;100.00
41830;BME280;38614;43.472;23.936;2023-05-31T06:54:49;100320.91;;;23.13;100.00
41830;BME280;38614;43.472;23.936;2023-05-31T06:57:37;100311.41;;;23.68;100.00
41830;BME280;38614;43.472;23.936;2023-05-31T07:00:25;100319.22;;;24.06;100.00
41830;BME280;38614;43.472;23.936;2023-05-31T07:03:13;100351.22;;;23.86;100.00
41830;BME280;38614;43.472;23.936;2023-05-31T07:06:04;100363.13;;;23.94;100.00
41830;BME280;38614;43.472;23.936;2023-05-31T07:08:52;100370.22;;;24.28;100.00
41830;BME280;38614;43.472;23.936;2023-05-31T07:11:59;100335.38;;;23.76;100.00
41830;BME280;38614;43.472;23.936;2023-05-31T07:14:50;100361.16;;;23.91;100.00
41830;BME280;38614;43.472;23.936;2023-05-31T07:17:38;100321.84;;;23.55;100.00
41830;BME280;38614;43.472;23.936;2023-05-31T07:20:26;100336.09;;;24.22;100.00
41830;BME280;38614;43.472;23.936;2023-05-31T07:23:15;100349.19;;;24.29;100.00
41830;BME280;38614;43.472;23.936;2023-05-31T07:26:03;100356.81;;;24.32;100.00
41830;BME280;38614;43.472;23.936;2023-05-31T07:28:51;100350.84;;;24.42;100.00
41830;BME280;38614;43.472;23.936;2023-05-31T07:31:44;100343.88;;;24.72;100.00
41830;BME280;38614;43.472;23.936;2023-05-31T07:34:36;100351.78;;;24.52;100.00
41830;BME280;38614;43.472;23.936;2023-05-31T07:37:51;100328.38;;;24.52;100.00
41830;BME280;38614;43.472;23.936;2023-05-31T07:40:46;100320.94;;;24.96;100.00
41830;BME280;38614;43.472;23.936;2023-05-31T07:43:36;100381.06;;;25.22;100.00
41830;BME280;38614;43.472;23.936;2023-05-31T07:46:28;100372.78;;;25.40;100.00
41830;BME280;38614;43.472;23.936;2023-05-31T07:49:15;100335.22;;;25.52;100.00
41830;BME280;38614;43.472;23.936;2023-05-31T07:52:03;100353.50;;;25.73;100.00
41830;BME280;38614;43.472;23.936;2023-05-31T07:54:51;100362.88;;;26.27;100.00
41830;BME280;38614;43.472;23.936;2023-05-31T07:57:39;100338.72;;;26.35;100.00
41830;BME280;38614;43.472;23.936;2023-05-31T08:00:27;100368.22;;;26.47;100.00
41830;BME280;38614;43.472;23.936;2023-05-31T08:03:18;100366.91;;;26.38;100.00
41830;BME280;38614;43.472;23.936;2023-05-31T08:06:06;100331.56;;;26.52;100.00
41830;BME280;38614;43.472;23.936;2023-05-31T08:08:54;100353.41;;;27.05;100.00
41830;BME280;38614;43.472;23.936;2023-05-31T08:11:42;100348.66;;;27.02;100.00
41830;BME280;38614;43.472;23.936;2023-05-31T08:14:30;100358.84;;;26.90;100.00
41830;BME280;38614;43.472;23.936;2023-05-31T08:17:17;100355.63;;;27.10;100.00
41830;BME280;38614;43.472;23.936;2023-05-31T08:20:06;100347.47;;;27.21;100.00
41830;BME280;38614;43.472;23.936;2023-05-31T08:22:54;100363.03;;;27.66;100.00
41830;BME280;38614;43.472;23.936;2023-05-31T08:25:42;100370.78;;;27.16;100.00
41830;BME280;38614;43.472;23.936;2023-05-31T08:28:29;100341.59;;;27.06;100.00
41830;BME280;38614;43.472;23.936;2023-05-31T08:31:18;100351.59;;;27.29;100.00
41830;BME280;38614;43.472;23.936;2023-05-31T08:34:07;100322.34;;;27.69;100.00
41830;BME280;38614;43.472;23.936;2023-05-31T08:37:00;100330.84;;;27.78;100.00
41830;BME280;38614;43.472;23.936;2023-05-31T08:39:48;100311.13;;;27.93;100.00
41830;BME280;38614;43.472;23.936;2023-05-31T08:42:45;100364.31;;;27.83;100.00
41830;BME280;38614;43.472;23.936;2023-05-31T08:45:35;100345.03;;;28.05;100.00
41830;BME280;38614;43.472;23.936;2023-05-31T08:48:45;100352.59;;;28.08;100.00
41830;BME280;38614;43.472;23.936;2023-05-31T08:51:36;100338.41;;;28.08;100.00
41830;BME280;38614;43.472;23.936;2023-05-31T08:54:25;100339.66;;;28.17;100.00
41830;BME280;38614;43.472;23.936;2023-05-31T08:57:14;100315.47;;;28.49;100.00
41830;BME280;38614;43.472;23.936;2023-05-31T09:00:03;100335.97;;;28.53;100.00
41830;BME280;38614;43.472;23.936;2023-05-31T09:02:59;100313.19;;;28.01;100.00
41830;BME280;38614;43.472;23.936;2023-05-31T09:05:47;100303.47;;;28.26;100.00
41830;BME280;38614;43.472;23.936;2023-05-31T09:08:35;100313.28;;;28.34;100.00
41830;BME280;38614;43.472;23.936;2023-05-31T09:11:23;100320.81;;;28.47;100.00
41830;BME280;38614;43.472;23.936;2023-05-31T09:14:11;100322.69;;;28.59;100.00
41830;BME280;38614;43.472;23.936;2023-05-31T09:16:59;100331.69;;;28.66;100.00
41830;BME280;38614;43.472;23.936;2023-05-31T09:19:53;100294.63;;;28.76;100.00
41830;BME280;38614;43.472;23.936;2023-05-31T09:22:41;100311.38;;;29.16;100.00
41830;BME280;38614;43.472;23.936;2023-05-31T09:25:42;100313.31;;;29.34;100.00
41830;BME280;38614;43.472;23.936;2023-05-31T09:28:30;100321.00;;;29.42;100.00
41830;BME280;38614;43.472;23.936;2023-05-31T09:31:18;100305.59;;;29.01;100.00
41830;BME280;38614;43.472;23.936;2023-05-31T09:34:24;100299.28;;;29.06;100.00
41830;BME280;38614;43.472;23.936;2023-05-31T09:37:24;100314.28;;;29.31;100.00
41830;BME280;38614;43.472;23.936;2023-05-31T09:40:13;100304.09;;;29.39;100.00
41830;BME280;38614;43.472;23.936;2023-05-31T09:43:01;100311.28;;;29.01;100.00
41830;BME280;38614;43.472;23.936;2023-05-31T09:45:49;100295.56;;;28.91;100.00
41830;BME280;38614;43.472;23.936;2023-05-31T09:48:37;100289.84;;;29.24;100.00
41830;BME280;38614;43.472;23.936;2023-05-31T09:51:28;100285.59;;;28.95;100.00
41830;BME280;38614;43.472;23.936;2023-05-31T09:54:15;100295.16;;;29.07;100.00
41830;BME280;38614;43.472;23.936;2023-05-31T09:57:05;100282.19;;;28.22;100.00
41830;BME280;38614;43.472;23.936;2023-05-31T09:59:59;100301.00;;;28.71;100.00
41830;BME280;38614;43.472;23.936;2023-05-31T10:02:52;100268.97;;;28.61;100.00
41830;BME280;38614;43.472;23.936;2023-05-31T10:05:40;100278.84;;;28.42;100.00
41830;BME280;38614;43.472;23.936;2023-05-31T10:08:28;100279.72;;;28.57;100.00
41830;BME280;38614;43.472;23.936;2023-05-31T10:11:25;100256.69;;;28.88;100.00
41830;BME280;38614;43.472;23.936;2023-05-31T10:14:25;100258.31;;;29.04;100.00
41830;BME280;38614;43.472;23.936;2023-05-31T10:17:19;100246.50;;;29.44;100.00
41830;BME280;38614;43.472;23.936;2023-05-31T10:20:11;100269.41;;;29.49;100.00
41830;BME280;38614;43.472;23.936;2023-05-31T10:23:01;100267.22;;;29.44;100.00
41830;BME280;38614;43.472;23.936;2023-05-31T10:28:42;100251.50;;;29.34;97.15
41830;BME280;38614;43.472;23.936;2023-05-31T10:31:37;100227.94;;;28.86;99.83
41830;BME280;38614;43.472;23.936;2023-05-31T10:34:30;100250.00;;;29.39;100.00
41830;BME280;38614;43.472;23.936;2023-05-31T10:37:19;100247.44;;;29.02;96.77
41830;BME280;38614;43.472;23.936;2023-05-31T10:40:23;100244.69;;;28.84;100.00
41830;BME280;38614;43.472;23.936;2023-05-31T10:46:22;100217.97;;;29.14;94.40
41830;BME280;38614;43.472;23.936;2023-05-31T10:49:13;100239.75;;;29.17;99.81
41830;BME280;38614;43.472;23.936;2023-05-31T10:52:06;100229.81;;;29.13;100.00
41830;BME280;38614;43.472;23.936;2023-05-31T10:55:17;100233.56;;;29.43;96.96
41830;BME280;38614;43.472;23.936;2023-05-31T10:58:24;100236.66;;;29.84;95.50
41830;BME280;38614;43.472;23.936;2023-05-31T11:01:14;100220.56;;;29.66;89.92
41830;BME280;38614;43.472;23.936;2023-05-31T11:04:18;100235.06;;;29.68;86.12
41830;BME280;38614;43.472;23.936;2023-05-31T11:07:16;100217.41;;;29.64;87.89
41830;BME280;38614;43.472;23.936;2023-05-31T11:10:06;100214.78;;;29.90;85.71
41830;BME280;38614;43.472;23.936;2023-05-31T11:13:02;100238.53;;;30.01;91.88
41830;BME280;38614;43.472;23.936;2023-05-31T11:15:50;100209.84;;;30.05;88.86
41830;BME280;38614;43.472;23.936;2023-05-31T11:18:41;100231.69;;;30.23;86.85
41830;BME280;38614;43.472;23.936;2023-05-31T11:21:54;100238.97;;;30.09;83.74
41830;BME280;38614;43.472;23.936;2023-05-31T11:24:51;100226.50;;;29.14;88.44
41830;BME280;38614;43.472;23.936;2023-05-31T11:27:39;100227.41;;;29.59;92.56
41830;BME280;38614;43.472;23.936;2023-05-31T11:30:35;100234.06;;;29.17;88.38
41830;BME280;38614;43.472;23.936;2023-05-31T11:33:23;100221.47;;;29.09;89.78
41830;BME280;38614;43.472;23.936;2023-05-31T11:36:14;100202.03;;;29.46;88.98
41830;BME280;38614;43.472;23.936;2023-05-31T11:39:02;100206.81;;;29.64;83.14
41830;BME280;38614;43.472;23.936;2023-05-31T11:41:50;100213.88;;;29.54;85.77
41830;BME280;38614;43.472;23.936;2023-05-31T11:44:42;100203.59;;;29.71;91.94
41830;BME280;38614;43.472;23.936;2023-05-31T11:50:31;100165.28;;;29.72;87.48
41830;BME280;38614;43.472;23.936;2023-05-31T11:53:19;100176.38;;;30.00;84.76
41830;BME280;38614;43.472;23.936;2023-05-31T11:56:07;100193.75;;;30.02;86.49
41830;BME280;38614;43.472;23.936;2023-05-31T11:59:00;100162.50;;;29.93;82.72
41830;BME280;38614;43.472;23.936;2023-05-31T12:01:47;100185.31;;;30.57;83.12
41830;BME280;38614;43.472;23.936;2023-05-31T12:04:37;100191.03;;;30.43;84.69
41830;BME280;38614;43.472;23.936;2023-05-31T12:07:25;100171.81;;;29.34;84.01
41830;BME280;38614;43.472;23.936;2023-05-31T12:10:15;100181.81;;;28.82;84.22
41830;BME280;38614;43.472;23.936;2023-05-31T12:13:03;100193.84;;;29.24;87.35
41830;BME280;38614;43.472;23.936;2023-05-31T12:15:51;100183.97;;;29.35;89.68
41830;BME280;38614;43.472;23.936;2023-05-31T12:18:47;100197.88;;;28.94;100.00
41830;BME280;38614;43.472;23.936;2023-05-31T12:21:35;100187.81;;;29.08;100.00
41830;BME280;38614;43.472;23.936;2023-05-31T12:24:26;100188.75;;;29.14;100.00
41830;BME280;38614;43.472;23.936;2023-05-31T12:27:17;100163.41;;;28.44;100.00
41830;BME280;38614;43.472;23.936;2023-05-31T12:30:15;100183.50;;;28.41;100.00
41830;BME280;38614;43.472;23.936;2023-05-31T12:33:05;100157.66;;;28.29;100.00
41830;BME280;38614;43.472;23.936;2023-05-31T12:35:53;100167.47;;;27.68;100.00
41830;BME280;38614;43.472;23.936;2023-05-31T12:38:41;100148.25;;;27.17;100.00
41830;BME280;38614;43.472;23.936;2023-05-31T12:41:29;100165.13;;;27.39;100.00
41830;BME280;38614;43.472;23.936;2023-05-31T12:44:18;100166.38;;;27.01;100.00
41830;BME280;38614;43.472;23.936;2023-05-31T12:47:08;100162.25;;;26.84;100.00
41830;BME280;38614;43.472;23.936;2023-05-31T12:50:01;100154.00;;;26.49;100.00
41830;BME280;38614;43.472;23.936;2023-05-31T12:52:58;100153.19;;;26.39;100.00
41830;BME280;38614;43.472;23.936;2023-05-31T12:55:46;100149.47;;;26.21;100.00
41830;BME280;38614;43.472;23.936;2023-05-31T12:58:34;100146.16;;;26.22;100.00
41830;BME280;38614;43.472;23.936;2023-05-31T13:01:28;100127.38;;;25.97;100.00
41830;BME280;38614;43.472;23.936;2023-05-31T13:04:16;100137.50;;;26.17;100.00
41830;BME280;38614;43.472;23.936;2023-05-31T13:07:04;100150.91;;;26.25;100.00
41830;BME280;38614;43.472;23.936;2023-05-31T13:09:52;100123.09;;;25.93;100.00
41830;BME280;38614;43.472;23.936;2023-05-31T13:12:41;100131.91;;;25.95;100.00
41830;BME280;38614;43.472;23.936;2023-05-31T13:15:29;100117.38;;;25.83;100.00
41830;BME280;38614;43.472;23.936;2023-05-31T13:18:16;100119.69;;;25.76;100.00
41830;BME280;38614;43.472;23.936;2023-05-31T13:21:04;100128.66;;;25.74;100.00
41830;BME280;38614;43.472;23.936;2023-05-31T13:23:52;100112.22;;;25.60;100.00
41830;BME280;38614;43.472;23.936;2023-05-31T13:26:41;100124.47;;;25.35;100.00
41830;BME280;38614;43.472;23.936;2023-05-31T13:29:28;100104.88;;;25.19;100.00
41830;BME280;38614;43.472;23.936;2023-05-31T13:32:16;100109.75;;;25.18;100.00
41830;BME280;38614;43.472;23.936;2023-05-31T13:35:04;100110.81;;;24.99;100.00
41830;BME280;38614;43.472;23.936;2023-05-31T13:37:52;100124.06;;;25.02;100.00
41830;BME280;38614;43.472;23.936;2023-05-31T13:40:43;100122.44;;;25.01;100.00
41830;BME280;38614;43.472;23.936;2023-05-31T13:43:31;100102.78;;;24.76;100.00
41830;BME280;38614;43.472;23.936;2023-05-31T13:46:20;100101.19;;;24.74;100.00
41830;BME280;38614;43.472;23.936;2023-05-31T13:49:09;100118.34;;;24.80;100.00
41830;BME280;38614;43.472;23.936;2023-05-31T13:51:58;100130.69;;;24.73;100.00
41830;BME280;38614;43.472;23.936;2023-05-31T13:54:45;100147.78;;;24.70;100.00
41830;BME280;38614;43.472;23.936;2023-05-31T13:57:34;100144.31;;;24.53;100.00
41830;BME280;38614;43.472;23.936;2023-05-31T14:00:22;100162.53;;;24.39;100.00
41830;BME280;38614;43.472;23.936;2023-05-31T14:03:10;100173.94;;;24.49;100.00
41830;BME280;38614;43.472;23.936;2023-05-31T14:05:58;100145.78;;;24.20;100.00
41830;BME280;38614;43.472;23.936;2023-05-31T14:08:47;100143.06;;;23.91;100.00
41830;BME280;38614;43.472;23.936;2023-05-31T14:11:35;100167.09;;;23.70;100.00
41830;BME280;38614;43.472;23.936;2023-05-31T14:14:22;100177.06;;;23.45;100.00
41830;BME280;38614;43.472;23.936;2023-05-31T14:17:10;100170.56;;;23.03;100.00
41830;BME280;38614;43.472;23.936;2023-05-31T14:19:58;100173.84;;;22.85;100.00
41830;BME280;38614;43.472;23.936;2023-05-31T14:22:46;100180.81;;;22.64;100.00
41830;BME280;38614;43.472;23.936;2023-05-31T14:25:34;100177.53;;;22.33;100.00
41830;BME280;38614;43.472;23.936;2023-05-31T14:28:22;100150.88;;;22.22;100.00
41830;BME280;38614;43.472;23.936;2023-05-31T14:31:10;100176.50;;;22.27;100.00
41830;BME280;38614;43.472;23.936;2023-05-31T14:33:57;100175.22;;;22.12;100.00
41830;BME280;38614;43.472;23.936;2023-05-31T14:36:46;100182.97;;;22.24;100.00
41830;BME280;38614;43.472;23.936;2023-05-31T14:39:34;100135.41;;;21.94;100.00